sensor_id;sensor_type;location;lat;lon;timestamp;P1;durP1;ratioP1;P2;durP2;ratioP2
6517;SDS011;3292;48.944;9.240;2024-02-26T00:01:09;2.37;;;2.13;;
6517;SDS011;3292;48.944;9.240;2024-02-26T00:03:38;2.20;;;1.93;;
6517;SDS011;3292;48.944;9.240;2024-02-26T00:06:07;2.90;;;2.40;;
6517;SDS011;3292;48.944;9.240;2024-02-26T00:08:34;2.53;;;2.33;;
6517;SDS011;3292;48.944;9.240;2024-02-26T00:11:01;2.93;;;2.13;;
6517;SDS011;3292;48.944;9.240;2024-02-26T00:13:27;3.00;;;2.40;;
6517;SDS011;3292;48.944;9.240;2024-02-26T00:15:54;2.30;;;2.10;;
6517;SDS011;3292;48.944;9.240;2024-02-26T00:18:21;2.57;;;2.37;;
6517;SDS011;3292;48.944;9.240;2024-02-26T00:20:49;2.43;;;2.23;;
6517;SDS011;3292;48.944;9.240;2024-02-26T00:23:16;2.37;;;2.03;;
6517;SDS011;3292;48.944;9.240;2024-02-26T00:25:43;2.40;;;2.20;;
6517;SDS011;3292;48.944;9.240;2024-02-26T00:28:09;2.77;;;2.43;;
6517;SDS011;3292;48.944;9.240;2024-02-26T00:30:38;2.40;;;2.20;;
6517;SDS011;3292;48.944;9.240;2024-02-26T00:33:05;2.47;;;2.27;;
6517;SDS011;3292;48.944;9.240;2024-02-26T00:35:32;2.37;;;2.17;;
6517;SDS011;3292;48.944;9.240;2024-02-26T00:38:00;2.53;;;2.33;;
6517;SDS011;3292;48.944;9.240;2024-02-26T00:40:28;2.03;;;1.80;;
6517;SDS011;3292;48.944;9.240;2024-02-26T00:42:55;2.20;;;2.00;;
6517;SDS011;3292;48.944;9.240;2024-02-26T00:45:21;2.33;;;2.10;;
6517;SDS011;3292;48.944;9.240;2024-02-26T00:47:48;2.50;;;2.30;;
6517;SDS011;3292;48.944;9.240;2024-02-26T00:50:15;2.37;;;2.13;;
6517;SDS011;3292;48.944;9.240;2024-02-26T00:52:42;2.20;;;2.00;;
6517;SDS011;3292;48.944;9.240;2024-02-26T00:55:10;2.30;;;2.10;;
6517;SDS011;3292;48.944;9.240;2024-02-26T00:57:37;2.17;;;1.97;;
6517;SDS011;3292;48.944;9.240;2024-02-26T01:00:06;2.70;;;2.50;;
6517;SDS011;3292;48.944;9.240;2024-02-26T01:02:34;2.30;;;2.10;;
6517;SDS011;3292;48.944;9.240;2024-02-26T01:05:01;2.33;;;2.13;;
6517;SDS011;3292;48.944;9.240;2024-02-26T01:07:28;2.30;;;2.10;;
6517;SDS011;3292;48.944;9.240;2024-02-26T01:09:58;3.27;;;1.90;;
6517;SDS011;3292;48.944;9.240;2024-02-26T01:12:26;2.30;;;2.10;;
6517;SDS011;3292;48.944;9.240;2024-02-26T01:14:53;2.47;;;2.27;;
6517;SDS011;3292;48.944;9.240;2024-02-26T01:17:20;2.97;;;2.63;;
6517;SDS011;3292;48.944;9.240;2024-02-26T01:19:47;2.87;;;2.20;;
6517;SDS011;3292;48.944;9.240;2024-02-26T01:22:13;2.63;;;2.43;;
6517;SDS011;3292;48.944;9.240;2024-02-26T01:24:40;3.00;;;2.73;;
6517;SDS011;3292;48.944;9.240;2024-02-26T01:27:07;2.70;;;2.40;;
6517;SDS011;3292;48.944;9.240;2024-02-26T01:29:36;2.63;;;2.43;;
6517;SDS011;3292;48.944;9.240;2024-02-26T01:32:03;2.67;;;2.30;;
6517;SDS011;3292;48.944;9.240;2024-02-26T01:34:30;2.30;;;2.10;;
6517;SDS011;3292;48.944;9.240;2024-02-26T01:36:58;2.60;;;2.40;;
6517;SDS011;3292;48.944;9.240;2024-02-26T01:39:24;2.70;;;2.13;;
6517;SDS011;3292;48.944;9.240;2024-02-26T01:41:52;3.00;;;2.40;;
6517;SDS011;3292;48.944;9.240;2024-02-26T01:44:19;2.97;;;2.57;;
6517;SDS011;3292;48.944;9.240;2024-02-26T01:46:47;2.47;;;2.27;;
6517;SDS011;3292;48.944;9.240;2024-02-26T01:49:14;2.30;;;2.10;;
6517;SDS011;3292;48.944;9.240;2024-02-26T01:51:42;2.83;;;2.37;;
6517;SDS011;3292;48.944;9.240;2024-02-26T01:54:10;2.90;;;2.07;;
6517;SDS011;3292;48.944;9.240;2024-02-26T01:56:37;2.77;;;2.13;;
6517;SDS011;3292;48.944;9.240;2024-02-26T01:59:06;2.60;;;2.40;;
6517;SDS011;3292;48.944;9.240;2024-02-26T02:01:34;2.83;;;2.63;;
6517;SDS011;3292;48.944;9.240;2024-02-26T02:04:04;2.70;;;2.50;;
6517;SDS011;3292;48.944;9.240;2024-02-26T02:06:31;2.70;;;2.50;;
6517;SDS011;3292;48.944;9.240;2024-02-26T02:08:58;2.43;;;2.23;;
6517;SDS011;3292;48.944;9.240;2024-02-26T02:11:31;3.90;;;2.53;;
6517;SDS011;3292;48.944;9.240;2024-02-26T02:13:58;4.17;;;2.63;;
6517;SDS011;3292;48.944;9.240;2024-02-26T02:16:25;2.60;;;2.40;;
6517;SDS011;3292;48.944;9.240;2024-02-26T02:18:52;2.70;;;2.50;;
6517;SDS011;3292;48.944;9.240;2024-02-26T02:21:20;2.63;;;2.20;;
6517;SDS011;3292;48.944;9.240;2024-02-26T02:23:47;2.30;;;2.10;;
6517;SDS011;3292;48.944;9.240;2024-02-26T02:26:14;2.00;;;1.70;;
6517;SDS011;3292;48.944;9.240;2024-02-26T02:28:42;2.30;;;2.10;;
6517;SDS011;3292;48.944;9.240;2024-02-26T02:31:09;2.50;;;2.30;;
6517;SDS011;3292;48.944;9.240;2024-02-26T02:33:36;2.63;;;2.23;;
6517;SDS011;3292;48.944;9.240;2024-02-26T02:36:04;2.33;;;2.10;;
6517;SDS011;3292;48.944;9.240;2024-02-26T02:38:36;2.60;;;2.40;;
6517;SDS011;3292;48.944;9.240;2024-02-26T02:41:03;3.10;;;2.60;;
6517;SDS011;3292;48.944;9.240;2024-02-26T02:43:30;3.00;;;2.70;;
6517;SDS011;3292;48.944;9.240;2024-02-26T02:45:57;2.63;;;2.43;;
6517;SDS011;3292;48.944;9.240;2024-02-26T02:48:24;3.30;;;2.70;;
6517;SDS011;3292;48.944;9.240;2024-02-26T02:50:51;4.27;;;2.67;;
6517;SDS011;3292;48.944;9.240;2024-02-26T02:53:17;2.50;;;2.30;;
6517;SDS011;3292;48.944;9.240;2024-02-26T02:55:45;2.70;;;2.40;;
6517;SDS011;3292;48.944;9.240;2024-02-26T02:58:12;5.17;;;3.00;;
6517;SDS011;3292;48.944;9.240;2024-02-26T03:00:39;3.63;;;2.77;;
6517;SDS011;3292;48.944;9.240;2024-02-26T03:03:06;2.77;;;2.47;;
6517;SDS011;3292;48.944;9.240;2024-02-26T03:05:33;2.43;;;2.23;;
6517;SDS011;3292;48.944;9.240;2024-02-26T03:07:59;2.83;;;2.30;;
6517;SDS011;3292;48.944;9.240;2024-02-26T03:10:26;2.67;;;2.27;;
6517;SDS011;3292;48.944;9.240;2024-02-26T03:12:54;2.40;;;2.20;;
6517;SDS011;3292;48.944;9.240;2024-02-26T03:15:22;2.73;;;2.30;;
6517;SDS011;3292;48.944;9.240;2024-02-26T03:17:49;2.87;;;2.30;;
6517;SDS011;3292;48.944;9.240;2024-02-26T03:20:15;3.13;;;2.30;;
6517;SDS011;3292;48.944;9.240;2024-02-26T03:22:44;2.10;;;2.00;;
6517;SDS011;3292;48.944;9.240;2024-02-26T03:25:11;2.60;;;2.40;;
6517;SDS011;3292;48.944;9.240;2024-02-26T03:27:38;3.40;;;2.27;;
6517;SDS011;3292;48.944;9.240;2024-02-26T03:30:07;3.10;;;2.53;;
6517;SDS011;3292;48.944;9.240;2024-02-26T03:32:35;2.60;;;2.40;;
6517;SDS011;3292;48.944;9.240;2024-02-26T03:35:02;2.73;;;2.53;;
6517;SDS011;3292;48.944;9.240;2024-02-26T03:37:29;2.77;;;2.50;;
6517;SDS011;3292;48.944;9.240;2024-02-26T03:39:56;2.87;;;2.50;;
6517;SDS011;3292;48.944;9.240;2024-02-26T03:42:23;2.60;;;2.40;;
6517;SDS011;3292;48.944;9.240;2024-02-26T03:44:50;2.37;;;2.13;;
6517;SDS011;3292;48.944;9.240;2024-02-26T03:47:18;3.67;;;2.27;;
6517;SDS011;3292;48.944;9.240;2024-02-26T03:49:44;3.33;;;2.33;;
6517;SDS011;3292;48.944;9.240;2024-02-26T03:52:11;2.53;;;2.33;;
6517;SDS011;3292;48.944;9.240;2024-02-26T03:54:40;2.60;;;2.40;;
6517;SDS011;3292;48.944;9.240;2024-02-26T03:57:06;2.50;;;2.30;;
6517;SDS011;3292;48.944;9.240;2024-02-26T03:59:33;2.70;;;2.43;;
6517;SDS011;3292;48.944;9.240;2024-02-26T04:02:01;3.20;;;2.57;;
6517;SDS011;3292;48.944;9.240;2024-02-26T04:04:29;2.90;;;2.60;;
6517;SDS011;3292;48.944;9.240;2024-02-26T04:06:56;2.60;;;2.40;;
6517;SDS011;3292;48.944;9.240;2024-02-26T04:09:22;2.43;;;2.20;;
6517;SDS011;3292;48.944;9.240;2024-02-26T04:11:49;2.73;;;2.10;;
6517;SDS011;3292;48.944;9.240;2024-02-26T04:14:16;2.40;;;2.20;;
6517;SDS011;3292;48.944;9.240;2024-02-26T04:16:43;2.70;;;2.50;;
6517;SDS011;3292;48.944;9.240;2024-02-26T04:19:10;2.67;;;2.47;;
6517;SDS011;3292;48.944;9.240;2024-02-26T04:21:40;2.30;;;2.10;;
6517;SDS011;3292;48.944;9.240;2024-02-26T04:24:07;3.30;;;2.53;;
6517;SDS011;3292;48.944;9.240;2024-02-26T04:26:34;2.40;;;2.20;;
6517;SDS011;3292;48.944;9.240;2024-02-26T04:29:01;2.50;;;2.30;;
6517;SDS011;3292;48.944;9.240;2024-02-26T04:31:27;2.20;;;2.00;;
6517;SDS011;3292;48.944;9.240;2024-02-26T04:33:56;2.83;;;2.40;;
6517;SDS011;3292;48.944;9.240;2024-02-26T04:36:23;2.40;;;2.20;;
6517;SDS011;3292;48.944;9.240;2024-02-26T04:38:52;3.83;;;2.57;;
6517;SDS011;3292;48.944;9.240;2024-02-26T04:41:19;2.40;;;2.20;;
6517;SDS011;3292;48.944;9.240;2024-02-26T04:43:46;2.50;;;2.20;;
6517;SDS011;3292;48.944;9.240;2024-02-26T04:46:13;2.80;;;2.50;;
6517;SDS011;3292;48.944;9.240;2024-02-26T04:48:40;3.57;;;2.30;;
6517;SDS011;3292;48.944;9.240;2024-02-26T04:51:07;3.17;;;2.57;;
6517;SDS011;3292;48.944;9.240;2024-02-26T04:53:34;2.30;;;2.10;;
6517;SDS011;3292;48.944;9.240;2024-02-26T04:56:03;3.43;;;2.30;;
6517;SDS011;3292;48.944;9.240;2024-02-26T04:58:30;2.40;;;2.20;;
6517;SDS011;3292;48.944;9.240;2024-02-26T05:00:57;5.33;;;2.10;;
6517;SDS011;3292;48.944;9.240;2024-02-26T05:03:24;2.67;;;2.47;;
6517;SDS011;3292;48.944;9.240;2024-02-26T05:05:50;2.83;;;2.23;;
6517;SDS011;3292;48.944;9.240;2024-02-26T05:08:17;2.53;;;2.33;;
6517;SDS011;3292;48.944;9.240;2024-02-26T05:10:44;2.17;;;2.07;;
6517;SDS011;3292;48.944;9.240;2024-02-26T05:13:13;3.07;;;2.40;;
6517;SDS011;3292;48.944;9.240;2024-02-26T05:15:43;2.27;;;2.07;;
6517;SDS011;3292;48.944;9.240;2024-02-26T05:18:11;2.50;;;2.20;;
6517;SDS011;3292;48.944;9.240;2024-02-26T05:20:38;2.10;;;2.00;;
6517;SDS011;3292;48.944;9.240;2024-02-26T05:23:05;2.20;;;2.00;;
6517;SDS011;3292;48.944;9.240;2024-02-26T05:25:32;2.53;;;2.30;;
6517;SDS011;3292;48.944;9.240;2024-02-26T05:27:59;3.00;;;2.33;;
6517;SDS011;3292;48.944;9.240;2024-02-26T05:30:27;2.63;;;2.43;;
6517;SDS011;3292;48.944;9.240;2024-02-26T05:32:54;3.20;;;2.20;;
6517;SDS011;3292;48.944;9.240;2024-02-26T05:35:21;3.03;;;2.50;;
6517;SDS011;3292;48.944;9.240;2024-02-26T05:37:47;3.03;;;2.73;;
6517;SDS011;3292;48.944;9.240;2024-02-26T05:40:14;3.33;;;2.37;;
6517;SDS011;3292;48.944;9.240;2024-02-26T05:42:41;5.70;;;3.03;;
6517;SDS011;3292;48.944;9.240;2024-02-26T05:45:10;3.23;;;2.30;;
6517;SDS011;3292;48.944;9.240;2024-02-26T05:47:38;2.67;;;2.47;;
6517;SDS011;3292;48.944;9.240;2024-02-26T05:50:08;2.37;;;2.17;;
6517;SDS011;3292;48.944;9.240;2024-02-26T05:52:35;3.50;;;2.40;;
6517;SDS011;3292;48.944;9.240;2024-02-26T05:55:03;2.23;;;1.97;;
6517;SDS011;3292;48.944;9.240;2024-02-26T05:57:30;2.63;;;2.40;;
6517;SDS011;3292;48.944;9.240;2024-02-26T05:59:57;2.57;;;2.37;;
6517;SDS011;3292;48.944;9.240;2024-02-26T06:02:28;2.40;;;2.20;;
6517;SDS011;3292;48.944;9.240;2024-02-26T06:04:56;3.50;;;2.87;;
6517;SDS011;3292;48.944;9.240;2024-02-26T06:07:23;3.07;;;2.73;;
6517;SDS011;3292;48.944;9.240;2024-02-26T06:09:51;2.50;;;2.30;;
6517;SDS011;3292;48.944;9.240;2024-02-26T06:12:18;3.00;;;2.70;;
6517;SDS011;3292;48.944;9.240;2024-02-26T06:14:45;3.17;;;2.83;;
6517;SDS011;3292;48.944;9.240;2024-02-26T06:17:12;4.10;;;3.20;;
6517;SDS011;3292;48.944;9.240;2024-02-26T06:19:39;3.60;;;3.30;;
6517;SDS011;3292;48.944;9.240;2024-02-26T06:22:07;4.10;;;3.70;;
6517;SDS011;3292;48.944;9.240;2024-02-26T06:24:34;3.80;;;3.33;;
6517;SDS011;3292;48.944;9.240;2024-02-26T06:27:01;7.03;;;3.40;;
6517;SDS011;3292;48.944;9.240;2024-02-26T06:29:27;3.50;;;3.17;;
6517;SDS011;3292;48.944;9.240;2024-02-26T06:31:54;3.57;;;3.27;;
6517;SDS011;3292;48.944;9.240;2024-02-26T06:34:21;3.60;;;3.23;;
6517;SDS011;3292;48.944;9.240;2024-02-26T06:36:48;3.33;;;3.00;;
6517;SDS011;3292;48.944;9.240;2024-02-26T06:39:16;3.70;;;3.30;;
6517;SDS011;3292;48.944;9.240;2024-02-26T06:41:44;3.70;;;3.40;;
6517;SDS011;3292;48.944;9.240;2024-02-26T06:44:11;3.67;;;2.70;;
6517;SDS011;3292;48.944;9.240;2024-02-26T06:46:39;4.30;;;2.87;;
6517;SDS011;3292;48.944;9.240;2024-02-26T06:49:05;2.93;;;2.70;;
6517;SDS011;3292;48.944;9.240;2024-02-26T06:51:32;3.50;;;2.87;;
6517;SDS011;3292;48.944;9.240;2024-02-26T06:53:59;3.40;;;3.03;;
6517;SDS011;3292;48.944;9.240;2024-02-26T06:56:27;4.20;;;3.30;;
6517;SDS011;3292;48.944;9.240;2024-02-26T06:58:54;3.57;;;3.27;;
6517;SDS011;3292;48.944;9.240;2024-02-26T07:01:21;4.20;;;3.07;;
6517;SDS011;3292;48.944;9.240;2024-02-26T07:03:48;3.93;;;3.00;;
6517;SDS011;3292;48.944;9.240;2024-02-26T07:06:15;5.90;;;3.10;;
6517;SDS011;3292;48.944;9.240;2024-02-26T07:08:41;3.17;;;2.70;;
6517;SDS011;3292;48.944;9.240;2024-02-26T07:11:08;4.77;;;3.50;;
6517;SDS011;3292;48.944;9.240;2024-02-26T07:13:37;3.23;;;2.80;;
6517;SDS011;3292;48.944;9.240;2024-02-26T07:16:04;4.80;;;3.10;;
6517;SDS011;3292;48.944;9.240;2024-02-26T07:18:32;4.50;;;3.20;;
6517;SDS011;3292;48.944;9.240;2024-02-26T07:21:01;6.03;;;3.67;;
6517;SDS011;3292;48.944;9.240;2024-02-26T07:23:28;3.40;;;3.10;;
6517;SDS011;3292;48.944;9.240;2024-02-26T07:25:55;4.83;;;3.80;;
6517;SDS011;3292;48.944;9.240;2024-02-26T07:28:22;5.37;;;3.80;;
6517;SDS011;3292;48.944;9.240;2024-02-26T07:30:50;3.87;;;3.47;;
6517;SDS011;3292;48.944;9.240;2024-02-26T07:33:17;4.23;;;3.50;;
6517;SDS011;3292;48.944;9.240;2024-02-26T07:35:44;3.60;;;3.23;;
6517;SDS011;3292;48.944;9.240;2024-02-26T07:38:11;3.80;;;3.50;;
6517;SDS011;3292;48.944;9.240;2024-02-26T07:40:38;4.67;;;3.53;;
6517;SDS011;3292;48.944;9.240;2024-02-26T07:43:05;4.37;;;3.33;;
6517;SDS011;3292;48.944;9.240;2024-02-26T07:45:32;4.27;;;3.87;;
6517;SDS011;3292;48.944;9.240;2024-02-26T07:48:01;4.80;;;3.33;;
6517;SDS011;3292;48.944;9.240;2024-02-26T07:50:28;3.57;;;3.27;;
6517;SDS011;3292;48.944;9.240;2024-02-26T07:52:55;5.10;;;3.53;;
6517;SDS011;3292;48.944;9.240;2024-02-26T07:55:23;3.67;;;3.37;;
6517;SDS011;3292;48.944;9.240;2024-02-26T07:57:50;3.60;;;3.30;;
6517;SDS011;3292;48.944;9.240;2024-02-26T08:00:17;4.37;;;3.70;;
6517;SDS011;3292;48.944;9.240;2024-02-26T08:02:44;5.37;;;3.90;;
6517;SDS011;3292;48.944;9.240;2024-02-26T08:05:13;4.10;;;3.70;;
6517;SDS011;3292;48.944;9.240;2024-02-26T08:07:40;7.00;;;4.43;;
6517;SDS011;3292;48.944;9.240;2024-02-26T08:10:07;4.53;;;3.87;;
6517;SDS011;3292;48.944;9.240;2024-02-26T08:12:35;4.77;;;3.90;;
6517;SDS011;3292;48.944;9.240;2024-02-26T08:15:01;5.07;;;3.60;;
6517;SDS011;3292;48.944;9.240;2024-02-26T08:17:29;4.23;;;3.60;;
6517;SDS011;3292;48.944;9.240;2024-02-26T08:19:57;4.10;;;3.70;;
6517;SDS011;3292;48.944;9.240;2024-02-26T08:22:26;5.57;;;3.53;;
6517;SDS011;3292;48.944;9.240;2024-02-26T08:24:52;4.93;;;3.53;;
6517;SDS011;3292;48.944;9.240;2024-02-26T08:27:19;3.80;;;3.40;;
6517;SDS011;3292;48.944;9.240;2024-02-26T08:29:46;3.63;;;3.33;;
6517;SDS011;3292;48.944;9.240;2024-02-26T08:32:13;5.10;;;3.60;;
6517;SDS011;3292;48.944;9.240;2024-02-26T08:34:40;4.37;;;3.70;;
6517;SDS011;3292;48.944;9.240;2024-02-26T08:37:06;3.93;;;3.53;;
6517;SDS011;3292;48.944;9.240;2024-02-26T08:39:34;5.40;;;3.53;;
6517;SDS011;3292;48.944;9.240;2024-02-26T08:42:01;5.27;;;3.73;;
6517;SDS011;3292;48.944;9.240;2024-02-26T08:44:28;3.77;;;3.37;;
6517;SDS011;3292;48.944;9.240;2024-02-26T08:46:55;6.70;;;3.50;;
6517;SDS011;3292;48.944;9.240;2024-02-26T08:49:22;3.90;;;3.50;;
6517;SDS011;3292;48.944;9.240;2024-02-26T08:51:48;5.77;;;3.80;;
6517;SDS011;3292;48.944;9.240;2024-02-26T08:54:15;5.40;;;3.40;;
6517;SDS011;3292;48.944;9.240;2024-02-26T08:56:43;7.10;;;3.67;;
6517;SDS011;3292;48.944;9.240;2024-02-26T08:59:10;8.47;;;4.67;;
6517;SDS011;3292;48.944;9.240;2024-02-26T09:01:37;5.00;;;4.37;;
6517;SDS011;3292;48.944;9.240;2024-02-26T09:04:04;7.53;;;4.17;;
6517;SDS011;3292;48.944;9.240;2024-02-26T09:06:30;3.83;;;3.50;;
6517;SDS011;3292;48.944;9.240;2024-02-26T09:08:57;6.80;;;3.40;;
6517;SDS011;3292;48.944;9.240;2024-02-26T09:11:24;3.33;;;3.03;;
6517;SDS011;3292;48.944;9.240;2024-02-26T09:13:52;4.30;;;3.40;;
6517;SDS011;3292;48.944;9.240;2024-02-26T09:16:19;4.00;;;3.10;;
6517;SDS011;3292;48.944;9.240;2024-02-26T09:18:46;5.57;;;3.17;;
6517;SDS011;3292;48.944;9.240;2024-02-26T09:21:13;10.17;;;3.20;;
6517;SDS011;3292;48.944;9.240;2024-02-26T09:23:41;6.63;;;3.00;;
6517;SDS011;3292;48.944;9.240;2024-02-26T09:26:07;7.70;;;3.33;;
6517;SDS011;3292;48.944;9.240;2024-02-26T09:28:34;4.77;;;3.43;;
6517;SDS011;3292;48.944;9.240;2024-02-26T09:31:04;6.63;;;3.00;;
6517;SDS011;3292;48.944;9.240;2024-02-26T09:33:31;6.40;;;3.10;;
6517;SDS011;3292;48.944;9.240;2024-02-26T09:35:58;7.30;;;3.40;;
6517;SDS011;3292;48.944;9.240;2024-02-26T09:38:25;5.37;;;3.30;;
6517;SDS011;3292;48.944;9.240;2024-02-26T09:40:52;7.80;;;3.47;;
6517;SDS011;3292;48.944;9.240;2024-02-26T09:43:20;4.97;;;3.30;;
6517;SDS011;3292;48.944;9.240;2024-02-26T09:45:49;4.50;;;2.83;;
6517;SDS011;3292;48.944;9.240;2024-02-26T09:48:18;2.90;;;2.60;;
6517;SDS011;3292;48.944;9.240;2024-02-26T09:50:46;3.97;;;2.60;;
6517;SDS011;3292;48.944;9.240;2024-02-26T09:53:13;4.73;;;2.70;;
6517;SDS011;3292;48.944;9.240;2024-02-26T09:55:40;4.17;;;2.90;;
6517;SDS011;3292;48.944;9.240;2024-02-26T09:58:07;3.97;;;2.67;;
6517;SDS011;3292;48.944;9.240;2024-02-26T10:00:36;3.60;;;2.47;;
6517;SDS011;3292;48.944;9.240;2024-02-26T10:03:04;4.33;;;2.70;;
6517;SDS011;3292;48.944;9.240;2024-02-26T10:05:33;3.47;;;2.50;;
6517;SDS011;3292;48.944;9.240;2024-02-26T10:08:01;4.10;;;2.30;;
6517;SDS011;3292;48.944;9.240;2024-02-26T10:10:29;3.43;;;3.10;;
6517;SDS011;3292;48.944;9.240;2024-02-26T10:12:56;3.83;;;2.43;;
6517;SDS011;3292;48.944;9.240;2024-02-26T10:15:24;4.73;;;2.63;;
6517;SDS011;3292;48.944;9.240;2024-02-26T10:17:52;2.67;;;2.47;;
6517;SDS011;3292;48.944;9.240;2024-02-26T10:20:19;2.60;;;2.40;;
6517;SDS011;3292;48.944;9.240;2024-02-26T10:22:49;2.90;;;2.50;;
6517;SDS011;3292;48.944;9.240;2024-02-26T10:25:17;2.77;;;2.57;;
6517;SDS011;3292;48.944;9.240;2024-02-26T10:27:44;3.23;;;2.67;;
6517;SDS011;3292;48.944;9.240;2024-02-26T10:30:15;2.50;;;2.30;;
6517;SDS011;3292;48.944;9.240;2024-02-26T10:32:44;3.33;;;2.67;;
6517;SDS011;3292;48.944;9.240;2024-02-26T10:35:11;2.60;;;2.40;;
6517;SDS011;3292;48.944;9.240;2024-02-26T10:37:39;3.40;;;2.67;;
6517;SDS011;3292;48.944;9.240;2024-02-26T10:40:08;3.93;;;2.80;;
6517;SDS011;3292;48.944;9.240;2024-02-26T10:42:37;3.10;;;2.70;;
6517;SDS011;3292;48.944;9.240;2024-02-26T10:45:04;5.13;;;2.87;;
6517;SDS011;3292;48.944;9.240;2024-02-26T10:47:31;4.63;;;2.60;;
6517;SDS011;3292;48.944;9.240;2024-02-26T10:49:59;2.90;;;2.60;;
6517;SDS011;3292;48.944;9.240;2024-02-26T10:52:27;3.27;;;2.50;;
6517;SDS011;3292;48.944;9.240;2024-02-26T10:54:57;3.70;;;2.73;;
6517;SDS011;3292;48.944;9.240;2024-02-26T10:57:29;3.40;;;3.10;;
6517;SDS011;3292;48.944;9.240;2024-02-26T10:59:59;2.90;;;2.70;;
6517;SDS011;3292;48.944;9.240;2024-02-26T11:02:29;2.97;;;2.67;;
6517;SDS011;3292;48.944;9.240;2024-02-26T11:04:57;2.93;;;2.63;;
6517;SDS011;3292;48.944;9.240;2024-02-26T11:07:25;2.70;;;2.37;;
6517;SDS011;3292;48.944;9.240;2024-02-26T11:09:54;2.40;;;2.20;;
6517;SDS011;3292;48.944;9.240;2024-02-26T11:12:22;2.57;;;2.37;;
6517;SDS011;3292;48.944;9.240;2024-02-26T11:14:51;2.80;;;2.60;;
6517;SDS011;3292;48.944;9.240;2024-02-26T11:17:20;2.53;;;2.33;;
6517;SDS011;3292;48.944;9.240;2024-02-26T11:19:48;2.50;;;2.30;;
6517;SDS011;3292;48.944;9.240;2024-02-26T11:22:16;2.40;;;2.20;;
6517;SDS011;3292;48.944;9.240;2024-02-26T11:24:43;3.93;;;2.87;;
6517;SDS011;3292;48.944;9.240;2024-02-26T11:27:11;2.63;;;2.43;;
6517;SDS011;3292;48.944;9.240;2024-02-26T11:29:39;1.90;;;1.80;;
6517;SDS011;3292;48.944;9.240;2024-02-26T11:32:10;3.50;;;2.40;;
6517;SDS011;3292;48.944;9.240;2024-02-26T11:34:38;3.33;;;2.50;;
6517;SDS011;3292;48.944;9.240;2024-02-26T11:37:08;2.40;;;2.10;;
6517;SDS011;3292;48.944;9.240;2024-02-26T11:39:36;2.83;;;2.30;;
6517;SDS011;3292;48.944;9.240;2024-02-26T11:42:07;3.67;;;1.90;;
6517;SDS011;3292;48.944;9.240;2024-02-26T11:44:36;3.70;;;2.47;;
6517;SDS011;3292;48.944;9.240;2024-02-26T11:49:49;2.27;;;2.07;;
6517;SDS011;3292;48.944;9.240;2024-02-26T11:52:16;2.83;;;2.20;;
6517;SDS011;3292;48.944;9.240;2024-02-26T11:54:44;2.57;;;2.37;;
6517;SDS011;3292;48.944;9.240;2024-02-26T11:57:24;2.30;;;2.03;;
6517;SDS011;3292;48.944;9.240;2024-02-26T11:59:51;2.80;;;2.60;;
6517;SDS011;3292;48.944;9.240;2024-02-26T12:05:06;2.87;;;2.60;;
6517;SDS011;3292;48.944;9.240;2024-02-26T12:07:35;2.30;;;2.10;;
6517;SDS011;3292;48.944;9.240;2024-02-26T12:12:59;2.97;;;2.20;;
6517;SDS011;3292;48.944;9.240;2024-02-26T12:15:31;2.00;;;1.90;;
6517;SDS011;3292;48.944;9.240;2024-02-26T12:18:01;3.30;;;2.00;;
6517;SDS011;3292;48.944;9.240;2024-02-26T12:20:29;2.20;;;2.10;;
6517;SDS011;3292;48.944;9.240;2024-02-26T12:22:57;2.30;;;2.10;;
6517;SDS011;3292;48.944;9.240;2024-02-26T12:25:24;2.43;;;2.00;;
6517;SDS011;3292;48.944;9.240;2024-02-26T12:27:53;2.00;;;1.80;;
6517;SDS011;3292;48.944;9.240;2024-02-26T12:30:20;1.93;;;1.83;;
6517;SDS011;3292;48.944;9.240;2024-02-26T12:32:47;2.20;;;2.00;;
6517;SDS011;3292;48.944;9.240;2024-02-26T12:35:16;1.73;;;1.63;;
6517;SDS011;3292;48.944;9.240;2024-02-26T12:37:43;2.53;;;1.87;;
6517;SDS011;3292;48.944;9.240;2024-02-26T12:40:11;1.80;;;1.70;;
6517;SDS011;3292;48.944;9.240;2024-02-26T12:42:38;1.90;;;1.60;;
6517;SDS011;3292;48.944;9.240;2024-02-26T12:45:06;2.13;;;1.70;;
6517;SDS011;3292;48.944;9.240;2024-02-26T12:47:37;1.60;;;1.50;;
6517;SDS011;3292;48.944;9.240;2024-02-26T12:50:05;1.50;;;1.40;;
6517;SDS011;3292;48.944;9.240;2024-02-26T12:52:34;1.60;;;1.50;;
6517;SDS011;3292;48.944;9.240;2024-02-26T12:55:02;2.27;;;1.80;;
6517;SDS011;3292;48.944;9.240;2024-02-26T12:57:30;1.83;;;1.50;;
6517;SDS011;3292;48.944;9.240;2024-02-26T12:59:58;1.70;;;1.60;;
6517;SDS011;3292;48.944;9.240;2024-02-26T13:02:26;1.90;;;1.80;;
6517;SDS011;3292;48.944;9.240;2024-02-26T13:04:53;1.47;;;1.37;;
6517;SDS011;3292;48.944;9.240;2024-02-26T13:07:21;3.33;;;1.53;;
6517;SDS011;3292;48.944;9.240;2024-02-26T13:09:50;1.63;;;1.53;;
6517;SDS011;3292;48.944;9.240;2024-02-26T13:12:18;1.50;;;1.40;;
6517;SDS011;3292;48.944;9.240;2024-02-26T13:14:44;1.50;;;1.40;;
6517;SDS011;3292;48.944;9.240;2024-02-26T13:17:11;1.47;;;1.37;;
6517;SDS011;3292;48.944;9.240;2024-02-26T13:19:48;1.40;;;1.30;;
6517;SDS011;3292;48.944;9.240;2024-02-26T13:22:15;1.13;;;1.10;;
6517;SDS011;3292;48.944;9.240;2024-02-26T13:24:42;1.33;;;1.10;;
6517;SDS011;3292;48.944;9.240;2024-02-26T13:27:10;1.33;;;1.23;;
6517;SDS011;3292;48.944;9.240;2024-02-26T13:29:37;1.40;;;1.30;;
6517;SDS011;3292;48.944;9.240;2024-02-26T13:32:04;1.30;;;1.20;;
6517;SDS011;3292;48.944;9.240;2024-02-26T13:34:32;1.23;;;1.17;;
6517;SDS011;3292;48.944;9.240;2024-02-26T13:37:00;1.10;;;1.10;;
6517;SDS011;3292;48.944;9.240;2024-02-26T13:39:28;1.20;;;1.10;;
6517;SDS011;3292;48.944;9.240;2024-02-26T13:41:55;1.23;;;1.13;;
6517;SDS011;3292;48.944;9.240;2024-02-26T13:44:23;1.20;;;1.10;;
6517;SDS011;3292;48.944;9.240;2024-02-26T13:46:50;1.57;;;1.40;;
6517;SDS011;3292;48.944;9.240;2024-02-26T13:49:17;2.03;;;1.33;;
6517;SDS011;3292;48.944;9.240;2024-02-26T13:51:44;1.30;;;1.20;;
6517;SDS011;3292;48.944;9.240;2024-02-26T13:54:11;1.40;;;1.30;;
6517;SDS011;3292;48.944;9.240;2024-02-26T13:56:38;1.40;;;1.20;;
6517;SDS011;3292;48.944;9.240;2024-02-26T13:59:05;1.20;;;1.10;;
6517;SDS011;3292;48.944;9.240;2024-02-26T14:01:34;1.30;;;1.20;;
6517;SDS011;3292;48.944;9.240;2024-02-26T14:04:01;1.53;;;1.20;;
6517;SDS011;3292;48.944;9.240;2024-02-26T14:06:29;1.40;;;1.30;;
6517;SDS011;3292;48.944;9.240;2024-02-26T14:08:57;1.40;;;1.30;;
6517;SDS011;3292;48.944;9.240;2024-02-26T14:11:24;2.57;;;1.30;;
6517;SDS011;3292;48.944;9.240;2024-02-26T14:13:51;1.23;;;1.10;;
6517;SDS011;3292;48.944;9.240;2024-02-26T14:16:18;1.17;;;1.10;;
6517;SDS011;3292;48.944;9.240;2024-02-26T14:18:47;1.10;;;1.10;;
6517;SDS011;3292;48.944;9.240;2024-02-26T14:21:13;1.03;;;1.00;;
6517;SDS011;3292;48.944;9.240;2024-02-26T14:23:40;0.97;;;0.97;;
6517;SDS011;3292;48.944;9.240;2024-02-26T14:26:09;1.63;;;1.10;;
6517;SDS011;3292;48.944;9.240;2024-02-26T14:28:36;1.67;;;1.00;;
6517;SDS011;3292;48.944;9.240;2024-02-26T14:31:03;1.63;;;1.00;;
6517;SDS011;3292;48.944;9.240;2024-02-26T14:33:30;1.20;;;1.10;;
6517;SDS011;3292;48.944;9.240;2024-02-26T14:35:59;1.00;;;1.00;;
6517;SDS011;3292;48.944;9.240;2024-02-26T14:38:25;1.20;;;1.10;;
6517;SDS011;3292;48.944;9.240;2024-02-26T14:40:52;1.00;;;1.00;;
6517;SDS011;3292;48.944;9.240;2024-02-26T14:43:19;1.10;;;1.00;;
6517;SDS011;3292;48.944;9.240;2024-02-26T14:45:46;1.27;;;0.90;;
6517;SDS011;3292;48.944;9.240;2024-02-26T14:48:13;0.90;;;0.90;;
6517;SDS011;3292;48.944;9.240;2024-02-26T14:50:40;1.00;;;1.00;;
6517;SDS011;3292;48.944;9.240;2024-02-26T14:53:08;1.00;;;1.00;;
6517;SDS011;3292;48.944;9.240;2024-02-26T14:55:35;1.03;;;1.03;;
6517;SDS011;3292;48.944;9.240;2024-02-26T14:58:01;1.03;;;1.03;;
6517;SDS011;3292;48.944;9.240;2024-02-26T15:00:28;1.10;;;1.10;;
6517;SDS011;3292;48.944;9.240;2024-02-26T15:02:58;1.00;;;1.00;;
6517;SDS011;3292;48.944;9.240;2024-02-26T15:05:25;1.10;;;1.10;;
6517;SDS011;3292;48.944;9.240;2024-02-26T15:07:52;1.00;;;1.00;;
6517;SDS011;3292;48.944;9.240;2024-02-26T15:10:20;1.20;;;1.10;;
6517;SDS011;3292;48.944;9.240;2024-02-26T15:12:47;1.20;;;1.10;;
6517;SDS011;3292;48.944;9.240;2024-02-26T15:15:15;1.00;;;1.00;;
6517;SDS011;3292;48.944;9.240;2024-02-26T15:17:42;1.30;;;1.20;;
6517;SDS011;3292;48.944;9.240;2024-02-26T15:20:09;3.40;;;1.23;;
6517;SDS011;3292;48.944;9.240;2024-02-26T15:22:37;1.40;;;1.30;;
6517;SDS011;3292;48.944;9.240;2024-02-26T15:25:04;1.50;;;1.40;;